Time;durP1;ratioP1;P1;durP2;ratioP2;P2;SDS_P1;SDS_P2;PMS_P1;PMS_P2;Temp;Humidity;BMP_temperature;BMP_pressure;BME280_temperature;BME280_humidity;BME280_pressure;Samples;Min_cycle;Max_cycle;Signal;HPM_P1;HPM_P2
2022/11/27 00:02:07;;;;;;;7.60;6.80;;;;;;;16.48;50.70;98065.63;4965186;28;20203;-90
2022/11/27 00:04:37;;;;;;;7.77;7.07;;;;;;;15.69;50.34;97910.59;4963655;28;20238;-90
2022/11/27 00:07:08;;;;;;;7.87;7.07;;;;;;;17.28;50.75;98137.97;4968689;28;20210;-89
2022/11/27 00:09:35;;;;;;;7.40;6.70;;;;;;;18.09;50.98;98279.81;4976434;28;20221;-89
2022/11/27 00:12:02;;;;;;;7.50;6.80;;;;;;;16.71;50.97;98093.22;4983126;28;20210;-90
2022/11/27 00:14:28;;;;;;;7.37;6.67;;;;;;;16.18;50.86;97935.41;4955092;28;20610;-90
2022/11/27 00:16:56;;;;;;;7.20;6.57;;;;;;;15.71;50.54;97868.47;4977258;28;20204;-89
2022/11/27 00:19:23;;;;;;;7.37;6.67;;;;;;;18.07;50.81;98288.16;4982895;28;20275;-89
2022/11/27 00:21:53;;;;;;;7.23;6.53;;;;;;;14.46;50.85;97705.00;4968344;28;20241;-89
2022/11/27 00:24:20;;;;;;;7.13;6.43;;;;;;;16.96;51.07;98088.75;4964229;28;20206;-90
2022/11/27 00:26:52;;;;;;;7.07;6.37;;;;;;;17.07;50.57;98163.84;4984794;28;20586;-90
2022/11/27 00:29:18;;;;;;;6.73;6.13;;;;;;;16.50;50.87;98015.88;4980614;28;20202;-89
2022/11/27 00:31:48;;;;;;;6.83;6.13;;;;;;;15.70;50.78;97930.06;4969383;28;20771;-88
2022/11/27 00:34:15;;;;;;;6.77;6.17;;;;;;;17.93;50.93;98228.94;4995578;28;20293;-90
2022/11/27 00:36:41;;;;;;;7.07;6.37;;;;;;;15.91;50.65;97863.75;4949826;28;20265;-90
2022/11/27 00:39:13;;;;;;;6.93;6.33;;;;;;;16.85;50.75;98075.44;4996697;28;20737;-90
2022/11/27 00:41:40;;;;;;;6.87;6.17;;;;;;;14.38;50.79;97698.59;4951714;28;20333;-90
2022/11/27 00:44:07;;;;;;;7.03;6.33;;;;;;;17.29;50.57;98184.59;4981362;28;20294;-90
2022/11/27 00:46:34;;;;;;;6.77;6.17;;;;;;;16.54;50.54;97980.63;4977592;28;20211;-89
2022/11/27 00:49:02;;;;;;;6.77;6.17;;;;;;;19.46;50.36;98524.22;4982555;28;20301;-87
2022/11/27 00:51:29;;;;;;;7.03;6.43;;;;;;;17.22;50.44;98164.69;4968647;28;20848;-90
2022/11/27 00:53:55;;;;;;;6.43;5.83;;;;;;;19.38;50.78;98504.22;4967473;28;20226;-90
2022/11/27 00:56:27;;;;;;;6.93;6.23;;;;;;;15.84;50.35;97888.66;4971266;28;20214;-89
2022/11/27 00:58:54;;;;;;;6.20;5.63;;;;;;;16.96;50.44;98089.59;4953176;28;20576;-89
2022/11/27 01:01:26;;;;;;;6.67;6.07;;;;;;;15.95;50.68;97893.53;4962035;28;20313;-89
2022/11/27 01:03:54;;;;;;;6.70;6.10;;;;;;;15.31;50.56;97752.97;4951716;28;20234;-90
2022/11/27 01:06:29;;;;;;;6.93;6.33;;;;;;;14.69;50.09;97643.97;4968206;28;20326;-90
2022/11/27 01:08:56;;;;;;;6.90;6.30;;;;;;;18.43;50.71;98295.28;4961099;28;20199;-87
2022/11/27 01:11:26;;;;;;;6.53;5.90;;;;;;;14.87;50.96;97707.41;4967550;28;20226;-88
2022/11/27 01:13:55;;;;;;;5.80;5.30;;;;;;;16.99;50.55;98099.06;4963296;28;20226;-88
2022/11/27 01:16:23;;;;;;;6.50;5.97;;;;;;;15.24;50.70;97787.19;4975021;28;20209;-88
2022/11/27 01:18:50;;;;;;;6.07;5.57;;;;;;;15.22;50.79;97745.72;4965728;28;20214;-88
2022/11/27 01:21:18;;;;;;;6.33;5.73;;;;;;;19.56;50.72;98523.03;4943413;28;20527;-87
2022/11/27 01:23:49;;;;;;;5.97;5.47;;;;;;;16.74;50.80;98004.56;4958240;28;20207;-87
2022/11/27 01:26:21;;;;;;;6.80;6.10;;;;;;;14.61;50.40;97645.19;4942962;28;20676;-88
2022/11/27 01:28:52;;;;;;;5.63;5.13;;;;;;;17.07;50.68;98119.00;4962245;28;20211;-87
2022/11/27 01:31:21;;;;;;;5.77;5.27;;;;;;;17.01;50.71;98070.44;4960758;28;20277;-87
2022/11/27 01:33:54;;;;;;;6.07;5.57;;;;;;;18.00;50.50;98243.72;4967066;28;20203;-87
2022/11/27 01:36:20;;;;;;;6.30;5.70;;;;;;;16.78;50.48;98060.66;4995920;28;20213;-88
2022/11/27 01:38:47;;;;;;;5.73;5.23;;;;;;;16.86;50.50;98056.00;4977304;28;20402;-87
2022/11/27 01:41:21;;;;;;;5.67;5.17;;;;;;;13.60;50.56;97461.44;4976035;28;20607;-88
2022/11/27 01:43:49;;;;;;;6.03;5.43;;;;;;;20.87;50.47;98708.63;4997781;28;20241;-88
2022/11/27 01:46:57;;;;;;;5.73;5.23;;;;;;;20.48;50.68;98646.16;4987286;28;20211;-88
2022/11/27 01:49:42;;;;;;;5.60;5.10;;;;;;;20.02;50.74;98603.72;4965895;28;20207;-88
2022/11/27 01:52:10;;;;;;;5.80;5.30;;;;;;;19.71;50.61;98519.63;4942848;28;20202;-88
2022/11/27 01:55:09;;;;;;;6.00;5.40;;;;;;;19.52;50.68;98459.94;4979691;28;20202;-88
2022/11/27 01:57:40;;;;;;;5.80;5.30;;;;;;;20.67;50.55;98671.84;4954728;28;20216;-88
2022/11/27 02:00:08;;;;;;;5.40;4.90;;;;;;;19.96;50.68;98534.53;4962143;28;20313;-88
2022/11/27 02:02:34;;;;;;;5.30;4.80;;;;;;;19.91;51.10;98584.41;4967658;28;20215;-87
2022/11/27 02:05:01;;;;;;;5.67;5.07;;;;;;;17.41;50.64;98114.13;4952757;28;20195;-88
2022/11/27 02:07:31;;;;;;;5.43;4.93;;;;;;;18.47;50.94;98268.34;4993175;28;20223;-88
2022/11/27 02:09:58;;;;;;;5.30;4.90;;;;;;;16.30;50.63;97936.09;4964968;28;20273;-88
2022/11/27 02:13:06;;;;;;;5.80;5.30;;;;;;;18.40;50.46;98324.75;4977300;28;20210;-88
2022/11/27 02:16:15;;;;;;;4.73;4.33;;;;;;;14.03;50.47;97501.00;4943737;28;20211;-89
2022/11/27 02:18:50;;;;;;;5.40;4.90;;;;;;;19.68;50.80;98478.66;4970086;28;20290;-90
2022/11/27 02:21:55;;;;;;;5.43;4.93;;;;;;;20.86;50.64;98663.41;4980504;28;20230;-88
2022/11/27 02:24:42;;;;;;;5.27;4.80;;;;;;;20.86;50.43;98658.31;4986231;28;21611;-89
2022/11/27 02:27:47;;;;;;;5.37;4.90;;;;;;;20.85;50.67;98660.00;4972966;28;20203;-87
2022/11/27 02:30:14;;;;;;;5.23;4.80;;;;;;;19.49;50.90;98426.63;4990733;28;20235;-87
2022/11/27 02:32:56;;;;;;;5.37;4.87;;;;;;;19.53;50.70;98451.47;4965832;28;20206;-87
2022/11/27 02:35:33;;;;;;;5.33;4.87;;;;;;;20.86;50.54;98660.88;4956387;28;20212;-87
2022/11/27 02:38:31;;;;;;;5.07;4.67;;;;;;;20.67;50.52;98633.53;5007604;28;20217;-88
2022/11/27 02:41:11;;;;;;;5.43;4.93;;;;;;;19.75;50.57;98462.00;4975588;28;20237;-88
2022/11/27 02:43:40;;;;;;;5.63;5.13;;;;;;;20.75;50.64;98633.94;4967701;28;20673;-89
2022/11/27 02:46:07;;;;;;;4.90;4.50;;;;;;;19.37;50.70;98391.19;4967461;28;20677;-90
2022/11/27 02:48:56;;;;;;;5.13;4.73;;;;;;;19.25;50.58;98372.69;4960017;28;20207;-90
2022/11/27 02:51:26;;;;;;;4.80;4.40;;;;;;;17.30;50.69;98054.25;4965047;28;20771;-87
2022/11/27 02:53:57;;;;;;;5.20;4.57;;;;;;;18.76;50.89;98360.72;4963220;28;20627;-90
2022/11/27 02:56:25;;;;;;;4.80;4.40;;;;;;;17.65;50.66;98101.09;4952120;28;20206;-88
2022/11/27 02:58:51;;;;;;;4.43;4.03;;;;;;;19.90;50.80;98559.72;4960901;28;20273;-88
2022/11/27 03:01:19;;;;;;;4.83;4.43;;;;;;;17.93;50.73;98154.28;4976093;28;20222;-88
2022/11/27 03:03:47;;;;;;;5.00;4.60;;;;;;;16.24;50.40;97829.25;4962109;28;20290;-88
2022/11/27 03:06:22;;;;;;;4.53;4.13;;;;;;;15.48;50.38;97727.84;4960228;28;20591;-87
2022/11/27 03:08:53;;;;;;;4.53;4.13;;;;;;;19.01;50.41;98302.59;4950008;28;20206;-88
2022/11/27 03:11:20;;;;;;;4.77;4.37;;;;;;;17.42;50.41;98037.13;4958522;28;20222;-88
2022/11/27 03:14:01;;;;;;;4.77;4.37;;;;;;;19.83;50.48;98540.66;4980012;28;20327;-87
2022/11/27 03:16:41;;;;;;;4.90;4.40;;;;;;;17.29;50.50;98048.28;4964820;28;20501;-88
2022/11/27 03:19:19;;;;;;;4.00;3.70;;;;;;;18.27;50.62;98246.00;4982960;28;20297;-87
2022/11/27 03:21:52;;;;;;;4.67;4.27;;;;;;;19.03;50.62;98343.44;4955078;28;20234;-87
2022/11/27 03:24:18;;;;;;;4.43;4.03;;;;;;;17.01;50.29;97950.22;4971151;28;20302;-88
2022/11/27 03:26:48;;;;;;;4.60;4.20;;;;;;;18.10;50.36;98130.63;4981268;28;20221;-87
2022/11/27 03:29:34;;;;;;;4.67;4.27;;;;;;;17.81;50.75;98087.53;4976317;28;20229;-88
2022/11/27 03:32:01;;;;;;;4.60;4.20;;;;;;;16.55;50.65;97875.78;4970949;28;20207;-89
2022/11/27 03:34:31;;;;;;;4.70;4.30;;;;;;;17.11;50.80;97986.34;4987952;28;20247;-88
2022/11/27 03:36:58;;;;;;;4.33;3.93;;;;;;;17.26;50.22;97976.13;4954775;28;20729;-88
2022/11/27 03:39:25;;;;;;;4.20;3.90;;;;;;;19.33;50.51;98396.06;4959705;28;20268;-87
2022/11/27 03:42:13;;;;;;;4.60;4.20;;;;;;;20.86;50.65;98607.19;4984988;28;20226;-88
2022/11/27 03:45:11;;;;;;;4.33;4.00;;;;;;;20.23;50.35;98512.09;4981523;28;20272;-88
2022/11/27 03:47:50;;;;;;;4.20;3.90;;;;;;;20.86;50.72;98591.88;4995268;28;20254;-88
2022/11/27 03:50:35;;;;;;;4.57;4.17;;;;;;;20.85;50.76;98598.69;4992876;28;20874;-87
2022/11/27 03:53:25;;;;;;;4.00;3.70;;;;;;;19.63;50.48;98408.69;4998988;28;20203;-86
2022/11/27 03:56:10;;;;;;;4.50;4.10;;;;;;;20.86;50.32;98602.97;5004855;28;20206;-87
2022/11/27 03:59:25;;;;;;;4.03;3.67;;;;;;;17.08;50.97;97960.78;4977043;28;20230;-87
2022/11/27 04:01:52;;;;;;;4.43;4.10;;;;;;;15.85;50.26;97710.47;4985020;28;20227;-89
2022/11/27 04:04:19;;;;;;;4.03;3.73;;;;;;;17.10;50.22;97931.28;4991668;28;20241;-88
2022/11/27 04:06:46;;;;;;;4.10;3.80;;;;;;;17.33;50.04;98042.59;4999813;28;20316;-88
2022/11/27 04:09:12;;;;;;;4.13;3.83;;;;;;;18.85;50.83;98289.91;4960742;28;20217;-88
2022/11/27 04:11:39;;;;;;;4.00;3.70;;;;;;;15.49;50.22;97728.72;4963925;28;20238;-87
2022/11/27 04:14:06;;;;;;;3.90;3.60;;;;;;;15.68;50.18;97681.69;4969681;28;20215;-88
2022/11/27 04:16:32;;;;;;;3.73;3.43;;;;;;;14.22;50.16;97470.09;4985949;28;20277;-85
2022/11/27 04:18:59;;;;;;;4.17;3.77;;;;;;;17.07;49.83;97986.09;4991677;28;20202;-88
2022/11/27 04:21:26;;;;;;;3.90;3.60;;;;;;;14.87;50.30;97597.75;4975395;28;20237;-87
2022/11/27 04:23:52;;;;;;;3.87;3.57;;;;;;;17.30;50.19;97968.75;4994739;28;20280;-88
2022/11/27 04:26:19;;;;;;;3.70;3.40;;;;;;;14.29;50.11;97523.66;4987905;28;20262;-88
2022/11/27 04:28:46;;;;;;;3.77;3.47;;;;;;;16.32;50.38;97811.09;4959890;28;20209;-90
2022/11/27 04:31:12;;;;;;;3.70;3.40;;;;;;;15.25;50.25;97648.84;5010605;28;20230;-90
2022/11/27 04:33:39;;;;;;;3.63;3.33;;;;;;;17.11;50.37;97998.19;4947600;28;20290;-90
2022/11/27 04:36:06;;;;;;;3.80;3.50;;;;;;;16.84;50.26;97905.31;4970601;28;20201;-89
2022/11/27 04:38:33;;;;;;;3.83;3.53;;;;;;;18.58;50.49;98209.53;4956614;28;20207;-85
2022/11/27 04:41:00;;;;;;;3.57;3.27;;;;;;;20.35;50.35;98535.69;4966564;28;20612;-90
2022/11/27 04:43:27;;;;;;;3.83;3.53;;;;;;;19.20;50.25;98325.69;4974504;28;20274;-90
2022/11/27 04:45:54;;;;;;;3.47;3.23;;;;;;;18.04;49.83;98130.31;4958747;28;20665;-87
2022/11/27 04:48:21;;;;;;;3.87;3.57;;;;;;;18.20;49.73;98166.81;4964131;28;20203;-88
2022/11/27 04:50:49;;;;;;;3.70;3.40;;;;;;;15.80;50.19;97770.16;4952563;28;20226;-88
2022/11/27 04:53:17;;;;;;;3.40;3.20;;;;;;;16.56;50.13;97875.03;4979720;28;20211;-88
2022/11/27 04:55:44;;;;;;;3.60;3.30;;;;;;;17.06;50.13;97969.13;4966756;28;20358;-86
2022/11/27 04:58:13;;;;;;;3.40;3.10;;;;;;;20.85;50.27;98619.13;4960504;28;20233;-85
2022/11/27 05:00:40;;;;;;;3.70;3.40;;;;;;;18.44;50.36;98212.19;4947704;28;20234;-87
2022/11/27 05:03:07;;;;;;;3.53;3.23;;;;;;;15.77;50.45;97742.13;4983882;28;20581;-87
2022/11/27 05:05:34;;;;;;;3.20;3.00;;;;;;;17.22;50.25;97976.75;4946250;28;20215;-88
2022/11/27 05:08:01;;;;;;;3.03;2.83;;;;;;;17.47;50.05;98041.66;5001033;28;20559;-88
2022/11/27 05:10:31;;;;;;;3.17;2.97;;;;;;;16.11;50.12;97778.66;4962600;28;20227;-84
2022/11/27 05:12:57;;;;;;;3.00;2.80;;;;;;;19.41;50.24;98370.16;4962356;28;20203;-88
2022/11/27 05:15:24;;;;;;;3.53;3.23;;;;;;;20.08;50.17;98517.28;4976195;28;20423;-87
2022/11/27 05:17:51;;;;;;;3.23;3.03;;;;;;;19.43;50.50;98365.13;4967920;28;20203;-87
2022/11/27 05:20:17;;;;;;;3.37;3.07;;;;;;;16.76;50.13;97904.00;4954171;28;20254;-86
2022/11/27 05:22:45;;;;;;;2.87;2.67;;;;;;;17.04;50.15;97999.50;4977635;28;20226;-87
2022/11/27 05:25:11;;;;;;;3.20;3.00;;;;;;;16.52;50.27;97883.25;4961910;28;20215;-86
2022/11/27 05:27:40;;;;;;;3.10;2.90;;;;;;;18.44;50.13;98243.56;4983869;28;20209;-87
2022/11/27 05:30:07;;;;;;;2.93;2.73;;;;;;;17.17;50.10;98013.75;4982542;28;20230;-88
2022/11/27 05:32:34;;;;;;;3.13;2.93;;;;;;;15.09;50.07;97639.50;5000954;28;20732;-85
2022/11/27 05:35:05;;;;;;;3.43;3.13;;;;;;;20.84;50.21;98596.91;4986814;28;20207;-88
2022/11/27 05:37:32;;;;;;;3.20;3.00;;;;;;;14.06;49.90;97442.19;4976637;28;20743;-87
2022/11/27 05:39:58;;;;;;;3.30;3.10;;;;;;;17.26;50.09;98037.94;4971688;28;20282;-87
2022/11/27 05:42:25;;;;;;;3.33;3.13;;;;;;;19.94;50.04;98419.63;4983635;28;20223;-88
2022/11/27 05:44:52;;;;;;;2.90;2.70;;;;;;;17.09;50.03;97927.00;5001517;28;20203;-88
2022/11/27 05:47:23;;;;;;;2.90;2.70;;;;;;;16.40;50.09;97837.75;4961374;28;20211;-87
2022/11/27 05:49:53;;;;;;;3.33;3.03;;;;;;;19.90;50.13;98438.13;4987675;28;20298;-87
2022/11/27 05:52:20;;;;;;;2.97;2.77;;;;;;;19.08;50.10;98269.03;4979566;28;20207;-87
2022/11/27 05:54:46;;;;;;;2.90;2.70;;;;;;;16.75;50.01;97877.75;4960562;28;20273;-88
2022/11/27 05:57:13;;;;;;;2.77;2.57;;;;;;;18.80;50.00;98225.09;4968964;28;20213;-90
2022/11/27 05:59:40;;;;;;;2.93;2.73;;;;;;;17.83;50.09;98050.38;4984008;28;20237;-86
2022/11/27 06:02:09;;;;;;;2.73;2.53;;;;;;;16.95;50.42;97900.00;4965800;28;20218;-83
2022/11/27 06:04:44;;;;;;;3.10;2.90;;;;;;;20.83;50.13;98584.94;4982575;28;20203;-87
2022/11/27 06:07:11;;;;;;;2.60;2.40;;;;;;;18.51;50.25;98178.59;4997468;28;20940;-86
2022/11/27 06:09:38;;;;;;;3.13;2.90;;;;;;;16.06;50.08;97748.00;4984937;28;20202;-86
2022/11/27 06:12:07;;;;;;;2.80;2.60;;;;;;;15.16;50.08;97590.13;4991435;28;20736;-88
2022/11/27 06:14:34;;;;;;;2.97;2.77;;;;;;;14.77;50.13;97528.03;4980388;28;20684;-84
2022/11/27 06:17:01;;;;;;;2.90;2.70;;;;;;;17.31;50.16;97993.34;4956781;28;20698;-88
2022/11/27 06:19:30;;;;;;;2.97;2.77;;;;;;;19.52;49.87;98371.59;4971622;28;20680;-88
2022/11/27 06:21:58;;;;;;;2.97;2.77;;;;;;;15.94;50.07;97726.19;4942727;28;20233;-87
2022/11/27 06:24:25;;;;;;;2.70;2.50;;;;;;;18.78;50.35;98282.75;4974949;28;20211;-87
2022/11/27 06:26:52;;;;;;;3.33;3.07;;;;;;;17.31;49.89;98016.22;4979639;28;20293;-87
2022/11/27 06:29:18;;;;;;;3.07;2.87;;;;;;;18.38;50.02;98151.63;4982617;28;20660;-90
2022/11/27 06:31:45;;;;;;;2.90;2.70;;;;;;;17.36;50.02;97969.09;4990367;28;20246;-87
2022/11/27 06:34:12;;;;;;;2.90;2.70;;;;;;;20.52;49.92;98524.63;4980991;28;20218;-86
2022/11/27 06:36:41;;;;;;;3.10;2.90;;;;;;;18.04;50.08;98122.69;4961940;28;20195;-86
2022/11/27 06:39:09;;;;;;;2.80;2.60;;;;;;;20.84;50.15;98596.06;4959726;28;20214;-88
2022/11/27 06:41:35;;;;;;;2.80;2.60;;;;;;;20.62;50.02;98576.22;4955626;28;20581;-87
2022/11/27 06:44:02;;;;;;;3.10;2.90;;;;;;;20.26;49.95;98482.50;4946102;28;20204;-85
2022/11/27 06:46:29;;;;;;;2.83;2.63;;;;;;;20.10;50.09;98464.63;4949935;28;20617;-87
2022/11/27 06:48:55;;;;;;;2.83;2.63;;;;;;;20.42;50.13;98507.97;4960361;28;20207;-88
2022/11/27 06:51:26;;;;;;;2.50;2.30;;;;;;;20.23;49.83;98489.13;4960749;28;20226;-87
2022/11/27 06:53:53;;;;;;;2.83;2.63;;;;;;;20.61;50.30;98561.72;4979728;28;20207;-87
2022/11/27 06:56:23;;;;;;;2.87;2.67;;;;;;;20.05;50.10;98471.19;4947330;28;20262;-87
2022/11/27 06:58:54;;;;;;;2.80;2.60;;;;;;;20.50;50.19;98536.44;4952219;28;20210;-86
2022/11/27 07:01:21;;;;;;;2.80;2.60;;;;;;;20.22;49.95;98490.78;4947823;28;20226;-86
2022/11/27 07:03:48;;;;;;;3.20;3.00;;;;;;;20.67;49.78;98571.34;4949857;28;20290;-86
2022/11/27 07:06:18;;;;;;;2.70;2.50;;;;;;;19.72;50.24;98406.59;4960728;28;20404;-87
2022/11/27 07:08:44;;;;;;;2.90;2.70;;;;;;;19.97;49.92;98490.34;4943021;28;20243;-87
2022/11/27 07:11:17;;;;;;;2.70;2.50;;;;;;;20.33;50.12;98492.19;4952811;28;20232;-88
2022/11/27 07:13:47;;;;;;;2.60;2.40;;;;;;;19.99;50.00;98430.91;4950896;28;20681;-88
2022/11/27 07:16:14;;;;;;;2.70;2.50;;;;;;;20.12;49.98;98446.84;4942760;28;20257;-84
2022/11/27 07:18:42;;;;;;;2.80;2.60;;;;;;;20.67;49.93;98549.25;4967521;28;20254;-87
2022/11/27 07:21:09;;;;;;;2.70;2.50;;;;;;;20.44;49.92;98505.50;4947974;28;20301;-87
2022/11/27 07:23:36;;;;;;;2.37;2.27;;;;;;;20.14;49.71;98452.94;4953382;28;20226;-88
2022/11/27 07:26:10;;;;;;;2.50;2.30;;;;;;;19.51;49.83;98340.91;4981175;28;20262;-87
2022/11/27 07:28:37;;;;;;;2.73;2.57;;;;;;;20.14;49.95;98432.50;4946153;28;20298;-86
2022/11/27 07:31:03;;;;;;;2.60;2.40;;;;;;;17.87;49.86;98048.06;4981998;28;20219;-87
2022/11/27 07:33:30;;;;;;;2.70;2.50;;;;;;;19.47;49.87;98311.81;4976739;28;20195;-88
2022/11/27 07:36:04;;;;;;;2.77;2.57;;;;;;;20.57;49.95;98533.41;4966700;28;20234;-88
2022/11/27 07:38:31;;;;;;;2.60;2.40;;;;;;;20.84;49.94;98547.50;4948479;28;20206;-88
2022/11/27 07:41:04;;;;;;;2.60;2.40;;;;;;;19.92;50.20;98388.06;4957537;28;20242;-83
2022/11/27 07:43:31;;;;;;;3.00;2.80;;;;;;;19.72;49.96;98408.28;4968592;28;20783;-87
2022/11/27 07:46:00;;;;;;;2.37;2.27;;;;;;;15.76;50.16;97661.84;4948723;28;20290;-88
2022/11/27 07:48:27;;;;;;;4.30;2.50;;;;;;;20.41;50.17;98464.50;4957164;28;20393;-87
2022/11/27 07:50:53;;;;;;;2.50;2.30;;;;;;;20.57;50.34;98493.41;4980973;28;20233;-87
2022/11/27 07:53:20;;;;;;;2.50;2.30;;;;;;;19.60;50.21;98319.28;4992122;28;20231;-88
2022/11/27 07:55:47;;;;;;;2.80;2.60;;;;;;;20.22;50.40;98432.06;4960978;28;20214;-87
2022/11/27 07:58:13;;;;;;;3.50;2.30;;;;;;;20.19;50.12;98420.88;4964782;28;20262;-88
2022/11/27 08:00:40;;;;;;;2.50;2.30;;;;;;;19.79;50.31;98378.06;4987684;28;20231;-87
2022/11/27 08:03:06;;;;;;;2.97;2.77;;;;;;;18.58;50.00;98150.09;4958705;28;20731;-88
2022/11/27 08:05:34;;;;;;;2.67;2.47;;;;;;;20.51;49.91;98477.78;4984299;28;20195;-88
2022/11/27 08:08:02;;;;;;;2.20;2.10;;;;;;;20.83;49.97;98528.72;4966593;28;20999;-88
2022/11/27 08:10:36;;;;;;;2.40;2.30;;;;;;;20.03;50.03;98388.56;4974460;28;20754;-87
2022/11/27 08:13:03;;;;;;;2.30;2.20;;;;;;;20.02;50.22;98388.50;4954344;28;20202;-88
2022/11/27 08:15:29;;;;;;;2.17;2.07;;;;;;;20.08;50.10;98394.78;4952064;28;20214;-87
2022/11/27 08:17:56;;;;;;;2.60;2.40;;;;;;;20.52;50.09;98465.88;4988341;28;20277;-86
2022/11/27 08:20:23;;;;;;;2.50;2.30;;;;;;;19.90;50.32;98360.72;4969872;28;20246;-87
2022/11/27 08:22:49;;;;;;;2.10;1.90;;;;;;;19.84;50.73;98350.22;4986840;28;20293;-85
2022/11/27 08:25:16;;;;;;;5.13;2.30;;;;;;;20.34;50.87;98435.22;5001888;28;20231;-87
2022/11/27 08:27:42;;;;;;;2.67;2.47;;;;;;;20.54;51.25;98469.41;4994170;28;20210;-87
2022/11/27 08:30:09;;;;;;;2.87;2.30;;;;;;;20.35;51.26;98426.78;4980954;28;20227;-87
2022/11/27 08:32:40;;;;;;;2.27;2.07;;;;;;;20.30;51.20;98420.56;4952374;28;20286;-86
2022/11/27 08:35:07;;;;;;;2.60;2.37;;;;;;;20.46;51.06;98452.84;4973335;28;20205;-87
2022/11/27 08:37:33;;;;;;;3.83;3.50;;;;;;;20.68;50.34;98499.91;4962824;28;20230;-87
2022/11/27 08:40:00;;;;;;;6.37;3.67;;;;;;;20.42;48.57;98451.78;4964335;28;20309;-88
2022/11/27 08:42:27;;;;;;;3.40;3.10;;;;;;;20.85;48.90;98510.91;4986225;28;20306;-87
2022/11/27 08:44:54;;;;;;;7.87;3.40;;;;;;;20.63;49.30;98480.06;4992112;28;20249;-87
2022/11/27 08:47:20;;;;;;;3.27;3.07;;;;;;;20.49;49.06;98460.63;4982443;28;20199;-88
2022/11/27 08:49:47;;;;;;;10.10;3.50;;;;;;;20.47;49.41;98441.81;4943012;28;20963;-88
2022/11/27 08:52:13;;;;;;;5.00;3.30;;;;;;;20.17;49.57;98390.16;4966179;28;20294;-90
2022/11/27 08:54:40;;;;;;;3.77;3.07;;;;;;;19.42;49.32;98262.28;4954006;28;20196;-90
2022/11/27 08:57:07;;;;;;;7.37;3.37;;;;;;;19.40;49.76;98268.13;4973901;28;20203;-89
2022/11/27 08:59:34;;;;;;;7.67;3.57;;;;;;;19.69;49.65;98303.56;4959780;28;20210;-90
2022/11/27 09:02:00;;;;;;;4.73;2.87;;;;;;;19.62;49.21;98304.06;4963284;28;20959;-91
2022/11/27 09:04:27;;;;;;;4.50;3.10;;;;;;;19.87;49.43;98345.28;4962720;28;20282;-91
2022/11/27 09:06:54;;;;;;;5.40;3.00;;;;;;;20.35;49.76;98439.53;4980443;28;20231;-92
2022/11/27 09:09:25;;;;;;;3.20;2.90;;;;;;;20.16;49.74;98392.63;4958162;28;20214;-93
2022/11/27 09:11:55;;;;;;;4.23;3.00;;;;;;;19.60;49.90;98292.91;4967932;28;20257;-92
2022/11/27 09:14:21;;;;;;;6.23;2.80;;;;;;;20.02;49.78;98382.59;4970711;28;20198;-89
2022/11/27 09:16:48;;;;;;;6.10;2.97;;;;;;;20.34;50.20;98447.97;4983371;28;20324;-90
2022/11/27 09:19:15;;;;;;;4.80;2.83;;;;;;;19.98;49.93;98362.84;4966089;28;20714;-91
2022/11/27 09:21:42;;;;;;;5.80;2.87;;;;;;;19.66;49.59;98301.72;4957584;28;20229;-90
2022/11/27 09:24:09;;;;;;;4.17;2.87;;;;;;;19.46;50.08;98282.06;4983272;28;20230;-90
2022/11/27 09:26:35;;;;;;;3.27;2.80;;;;;;;19.82;50.33;98326.31;4964189;28;20969;-91
2022/11/27 09:29:02;;;;;;;5.47;2.77;;;;;;;20.23;50.40;98392.13;4987722;28;20601;-90
2022/11/27 09:31:29;;;;;;;9.73;3.10;;;;;;;20.42;50.27;98448.34;4985439;28;20626;-90
2022/11/27 09:33:57;;;;;;;3.70;2.70;;;;;;;19.75;50.44;98296.22;4952829;28;20376;-89
2022/11/27 09:36:24;;;;;;;6.47;2.70;;;;;;;19.78;50.13;98324.41;4987262;28;20666;-91
2022/11/27 09:38:51;;;;;;;3.63;2.33;;;;;;;20.15;50.07;98381.53;4955458;28;20222;-90
2022/11/27 09:41:40;;;;;;;6.17;2.60;;;;;;;20.83;50.60;98487.84;4971200;28;20727;-90
2022/11/27 09:44:19;;;;;;;4.70;2.90;;;;;;;20.85;50.37;98490.47;4982917;28;20365;-90
2022/11/27 09:46:46;;;;;;;4.33;2.40;;;;;;;20.42;50.43;98418.59;4997836;28;20301;-92
2022/11/27 09:49:40;;;;;;;10.80;2.73;;;;;;;20.22;51.07;98391.25;4952733;28;20225;-89
2022/11/27 09:52:21;;;;;;;3.03;2.50;;;;;;;20.85;50.52;98496.47;4972325;28;20207;-91
2022/11/27 09:54:53;;;;;;;3.47;2.40;;;;;;;20.85;50.61;98485.38;4971547;28;20195;-91
2022/11/27 09:57:25;;;;;;;4.43;2.87;;;;;;;19.81;50.42;98307.56;4998293;28;20261;-92
2022/11/27 09:59:52;;;;;;;3.27;2.50;;;;;;;19.36;50.53;98226.28;4961641;28;20203;-89
2022/11/27 10:02:29;;;;;;;2.87;2.37;;;;;;;20.52;50.00;98420.78;4970132;28;20307;-89
2022/11/27 10:04:58;;;;;;;3.97;2.70;;;;;;;20.13;50.39;98356.75;4953779;28;20221;-91
2022/11/27 10:08:09;;;;;;;4.13;2.57;;;;;;;20.84;50.56;98471.72;4966899;28;20213;-90
2022/11/27 10:10:40;;;;;;;3.00;2.60;;;;;;;19.79;50.52;98299.00;4997503;28;20238;-91
2022/11/27 10:13:28;;;;;;;4.43;2.70;;;;;;;20.84;50.16;98458.09;4974400;28;20652;-90
2022/11/27 10:16:36;;;;;;;4.77;2.73;;;;;;;20.83;50.38;98454.63;4986967;28;20207;-91
2022/11/27 10:19:15;;;;;;;3.83;2.60;;;;;;;20.83;50.36;98449.53;4933790;29;20743;-90
2022/11/27 10:21:46;;;;;;;3.27;2.70;;;;;;;20.05;50.45;98304.44;4983466;28;20258;-90
2022/11/27 10:24:18;;;;;;;3.10;2.30;;;;;;;20.82;50.38;98441.78;4961935;28;20227;-91
2022/11/27 10:26:46;;;;;;;3.30;2.73;;;;;;;20.22;50.56;98375.06;4995516;28;20278;-91
2022/11/27 10:29:13;;;;;;;6.03;2.80;;;;;;;20.82;50.69;98437.56;4947624;28;20211;-90
2022/11/27 10:31:52;;;;;;;4.13;2.90;;;;;;;19.57;51.06;98234.13;4968342;28;20317;-92
2022/11/27 10:34:51;;;;;;;5.40;2.73;;;;;;;19.39;51.22;98179.72;4939219;28;20207;-91
2022/11/27 10:37:23;;;;;;;3.00;2.50;;;;;;;18.13;51.25;97978.19;4972231;28;20293;-91
2022/11/27 10:40:07;;;;;;;3.80;2.70;;;;;;;19.69;51.38;98214.31;4968062;28;20207;-91
2022/11/27 10:42:38;;;;;;;6.00;3.00;;;;;;;19.78;51.54;98245.34;4953727;28;20223;-92
2022/11/27 10:45:22;;;;;;;3.57;2.60;;;;;;;20.84;51.49;98417.19;4953874;28;20587;-90
2022/11/27 10:47:49;;;;;;;3.37;2.50;;;;;;;20.02;51.40;98298.38;4965823;28;20217;-91
2022/11/27 10:50:16;;;;;;;3.60;2.73;;;;;;;19.76;51.58;98234.19;4952440;28;20241;-90
2022/11/27 10:52:58;;;;;;;4.10;2.90;;;;;;;20.57;51.40;98365.69;4958822;28;20199;-91
2022/11/27 10:55:31;;;;;;;4.80;2.60;;;;;;;20.86;51.38;98415.56;4940291;28;20206;-91
2022/11/27 10:58:13;;;;;;;3.13;2.60;;;;;;;20.86;51.37;98402.78;4981194;28;20215;-90
2022/11/27 11:00:39;;;;;;;3.27;2.60;;;;;;;19.86;51.19;98233.81;4969669;28;20301;-90
2022/11/27 11:03:14;;;;;;;5.87;2.60;;;;;;;20.85;51.56;98404.50;4961316;28;20298;-91
2022/11/27 11:05:41;;;;;;;3.43;2.70;;;;;;;18.70;51.40;98038.69;4942604;28;20716;-91
2022/11/27 11:08:28;;;;;;;3.03;2.50;;;;;;;18.44;51.51;97972.97;4975734;28;20560;-90
2022/11/27 11:11:00;;;;;;;4.37;2.57;;;;;;;19.92;51.45;98255.41;4956441;28;20239;-90
2022/11/27 11:13:39;;;;;;;3.27;2.83;;;;;;;20.86;51.59;98400.25;4938962;28;20246;-90
2022/11/27 11:16:22;;;;;;;3.30;2.67;;;;;;;19.12;51.58;98091.69;4986208;28;20226;-92
2022/11/27 11:18:51;;;;;;;2.60;2.40;;;;;;;17.32;51.72;97774.09;4936498;28;20278;-90
2022/11/27 11:21:28;;;;;;;3.03;2.43;;;;;;;20.86;51.79;98398.56;4957892;28;20318;-92
2022/11/27 11:24:01;;;;;;;5.60;2.83;;;;;;;19.27;51.72;98112.88;4969051;28;20593;-88
2022/11/27 11:26:52;;;;;;;6.73;2.60;;;;;;;20.87;51.72;98387.53;4951571;28;20307;-89
2022/11/27 11:29:44;;;;;;;2.70;2.50;;;;;;;20.03;51.64;98273.75;4952639;28;20555;-92
2022/11/27 11:32:20;;;;;;;3.73;2.80;;;;;;;19.31;51.56;98125.81;4971707;28;20239;-91
2022/11/27 11:34:55;;;;;;;5.67;2.90;;;;;;;19.34;51.55;98117.44;4938617;28;20314;-91
2022/11/27 11:37:31;;;;;;;5.37;3.10;;;;;;;18.87;51.91;98032.75;4971682;28;20213;-90
2022/11/27 11:40:21;;;;;;;6.73;3.13;;;;;;;19.36;51.50;98115.84;4948745;28;20231;-88
2022/11/27 11:42:59;;;;;;;4.90;2.60;;;;;;;20.65;51.60;98340.50;4948786;28;20783;-91
2022/11/27 11:45:27;;;;;;;3.53;2.23;;;;;;;20.54;52.01;98322.16;4937493;28;20306;-92
2022/11/27 11:48:21;;;;;;;6.63;3.00;;;;;;;20.87;51.74;98373.91;4947966;28;20297;-92
2022/11/27 11:51:09;;;;;;;2.63;2.20;;;;;;;19.51;51.84;98140.38;4963616;28;20369;-91
2022/11/27 11:53:38;;;;;;;3.10;2.57;;;;;;;17.88;51.64;97868.41;4969534;28;20199;-91
2022/11/27 11:56:32;;;;;;;3.77;2.53;;;;;;;20.51;51.70;98303.25;4958185;28;20334;-91